sensor_id;sensor_type;location;lat;lon;timestamp;pressure;altitude;pressure_sealevel;temperature;humidity
48882;BME280;57063;51.406;-2.402;2023-02-17T00:02:07;101069.47;;;9.04;100.00
48882;BME280;57063;51.406;-2.402;2023-02-17T00:04:33;101098.00;;;9.20;100.00
48882;BME280;57063;51.406;-2.402;2023-02-17T00:06:58;101050.97;;;8.94;100.00
48882;BME280;57063;51.406;-2.402;2023-02-17T00:09:24;101088.53;;;9.20;100.00
48882;BME280;57063;51.406;-2.402;2023-02-17T00:11:50;101075.16;;;9.12;100.00
48882;BME280;57063;51.406;-2.402;2023-02-17T00:14:17;101065.28;;;9.02;100.00
48882;BME280;57063;51.406;-2.402;2023-02-17T00:16:43;101082.16;;;9.09;100.00
48882;BME280;57063;51.406;-2.402;2023-02-17T00:19:11;101059.94;;;9.06;100.00
48882;BME280;57063;51.406;-2.402;2023-02-17T00:21:50;101046.38;;;9.03;100.00
48882;BME280;57063;51.406;-2.402;2023-02-17T00:24:16;101051.50;;;9.03;100.00
48882;BME280;57063;51.406;-2.402;2023-02-17T00:26:42;101085.50;;;9.11;100.00
48882;BME280;57063;51.406;-2.402;2023-02-17T00:29:08;101058.19;;;9.07;100.00
48882;BME280;57063;51.406;-2.402;2023-02-17T00:31:33;101088.22;;;9.28;100.00
48882;BME280;57063;51.406;-2.402;2023-02-17T00:33:59;101087.63;;;9.21;100.00
48882;BME280;57063;51.406;-2.402;2023-02-17T00:36:25;101058.19;;;9.07;100.00
48882;BME280;57063;51.406;-2.402;2023-02-17T00:38:53;101073.88;;;9.23;100.00
48882;BME280;57063;51.406;-2.402;2023-02-17T00:41:19;101095.88;;;9.30;100.00
48882;BME280;57063;51.406;-2.402;2023-02-17T00:43:45;101057.03;;;9.14;100.00
48882;BME280;57063;51.406;-2.402;2023-02-17T00:46:11;101056.25;;;9.12;100.00
48882;BME280;57063;51.406;-2.402;2023-02-17T00:48:37;101059.38;;;9.20;100.00
48882;BME280;57063;51.406;-2.402;2023-02-17T00:51:02;101071.19;;;9.24;100.00
48882;BME280;57063;51.406;-2.402;2023-02-17T00:53:28;101075.47;;;9.05;100.00
48882;BME280;57063;51.406;-2.402;2023-02-17T00:55:54;101060.38;;;8.95;100.00
48882;BME280;57063;51.406;-2.402;2023-02-17T00:58:20;101053.03;;;9.07;100.00
48882;BME280;57063;51.406;-2.402;2023-02-17T01:00:46;101060.03;;;9.05;100.00
48882;BME280;57063;51.406;-2.402;2023-02-17T01:03:11;101067.16;;;9.18;100.00
48882;BME280;57063;51.406;-2.402;2023-02-17T01:05:41;101049.06;;;9.20;100.00
48882;BME280;57063;51.406;-2.402;2023-02-17T01:08:08;101035.22;;;9.02;100.00
48882;BME280;57063;51.406;-2.402;2023-02-17T01:10:39;101033.41;;;9.04;100.00
48882;BME280;57063;51.406;-2.402;2023-02-17T01:13:05;101049.97;;;8.98;100.00
48882;BME280;57063;51.406;-2.402;2023-02-17T01:15:36;101076.22;;;9.07;100.00
48882;BME280;57063;51.406;-2.402;2023-02-17T01:18:02;101059.16;;;9.04;100.00
48882;BME280;57063;51.406;-2.402;2023-02-17T01:20:28;101059.88;;;9.08;100.00
48882;BME280;57063;51.406;-2.402;2023-02-17T01:22:53;101039.66;;;8.98;100.00
48882;BME280;57063;51.406;-2.402;2023-02-17T01:25:19;101058.38;;;9.02;100.00
48882;BME280;57063;51.406;-2.402;2023-02-17T01:27:44;101045.81;;;8.94;100.00
48882;BME280;57063;51.406;-2.402;2023-02-17T01:30:11;101058.97;;;9.09;100.00
48882;BME280;57063;51.406;-2.402;2023-02-17T01:32:37;101024.72;;;8.86;100.00
48882;BME280;57063;51.406;-2.402;2023-02-17T01:35:03;101038.50;;;8.85;100.00
48882;BME280;57063;51.406;-2.402;2023-02-17T01:37:31;101066.19;;;9.00;100.00
48882;BME280;57063;51.406;-2.402;2023-02-17T01:39:57;101055.75;;;8.83;100.00
48882;BME280;57063;51.406;-2.402;2023-02-17T01:42:23;101033.59;;;8.79;100.00
48882;BME280;57063;51.406;-2.402;2023-02-17T01:47:47;101054.88;;;8.83;100.00
48882;BME280;57063;51.406;-2.402;2023-02-17T01:50:15;101039.81;;;8.73;100.00
48882;BME280;57063;51.406;-2.402;2023-02-17T01:52:43;101059.19;;;8.82;100.00
48882;BME280;57063;51.406;-2.402;2023-02-17T01:55:13;101056.56;;;8.84;100.00
48882;BME280;57063;51.406;-2.402;2023-02-17T01:57:40;101044.72;;;8.79;100.00
48882;BME280;57063;51.406;-2.402;2023-02-17T02:00:10;101068.78;;;8.78;100.00
48882;BME280;57063;51.406;-2.402;2023-02-17T02:02:36;101078.47;;;8.72;100.00
48882;BME280;57063;51.406;-2.402;2023-02-17T02:05:03;101072.13;;;8.81;100.00
48882;BME280;57063;51.406;-2.402;2023-02-17T02:07:34;101073.09;;;8.78;100.00
48882;BME280;57063;51.406;-2.402;2023-02-17T02:10:02;101069.09;;;8.71;100.00
48882;BME280;57063;51.406;-2.402;2023-02-17T02:12:30;101049.03;;;8.79;100.00
48882;BME280;57063;51.406;-2.402;2023-02-17T02:14:59;101086.22;;;8.92;100.00
48882;BME280;57063;51.406;-2.402;2023-02-17T02:17:31;101079.19;;;8.97;100.00
48882;BME280;57063;51.406;-2.402;2023-02-17T02:23:09;101088.28;;;8.84;100.00
48882;BME280;57063;51.406;-2.402;2023-02-17T02:36:29;101096.06;;;8.83;100.00
48882;BME280;57063;51.406;-2.402;2023-02-17T02:39:09;101086.84;;;8.77;100.00
48882;BME280;57063;51.406;-2.402;2023-02-17T02:44:08;101095.72;;;8.70;100.00
48882;BME280;57063;51.406;-2.402;2023-02-17T02:46:34;101110.97;;;8.74;100.00
48882;BME280;57063;51.406;-2.402;2023-02-17T02:49:00;101050.53;;;8.63;100.00
48882;BME280;57063;51.406;-2.402;2023-02-17T02:57:13;101112.38;;;8.83;100.00
48882;BME280;57063;51.406;-2.402;2023-02-17T03:08:16;101057.00;;;8.51;100.00
48882;BME280;57063;51.406;-2.402;2023-02-17T03:10:46;101056.81;;;8.55;100.00
48882;BME280;57063;51.406;-2.402;2023-02-17T03:13:13;101083.75;;;8.69;100.00
48882;BME280;57063;51.406;-2.402;2023-02-17T03:15:39;101070.47;;;8.57;100.00
48882;BME280;57063;51.406;-2.402;2023-02-17T03:18:05;101076.56;;;8.55;100.00
48882;BME280;57063;51.406;-2.402;2023-02-17T03:20:37;101071.75;;;8.46;100.00
48882;BME280;57063;51.406;-2.402;2023-02-17T03:23:05;101072.50;;;8.49;100.00
48882;BME280;57063;51.406;-2.402;2023-02-17T03:25:30;101049.47;;;8.23;100.00
48882;BME280;57063;51.406;-2.402;2023-02-17T03:27:56;101061.81;;;8.36;100.00
48882;BME280;57063;51.406;-2.402;2023-02-17T03:30:22;101044.00;;;8.32;100.00
48882;BME280;57063;51.406;-2.402;2023-02-17T03:32:47;101066.00;;;8.39;100.00
48882;BME280;57063;51.406;-2.402;2023-02-17T03:35:13;101051.34;;;8.41;100.00
48882;BME280;57063;51.406;-2.402;2023-02-17T03:37:39;101040.06;;;8.45;100.00
48882;BME280;57063;51.406;-2.402;2023-02-17T03:40:06;101063.88;;;8.50;100.00
48882;BME280;57063;51.406;-2.402;2023-02-17T03:42:32;101068.97;;;8.52;100.00
48882;BME280;57063;51.406;-2.402;2023-02-17T03:44:57;101044.38;;;8.45;100.00
48882;BME280;57063;51.406;-2.402;2023-02-17T03:47:23;101031.69;;;8.40;100.00
48882;BME280;57063;51.406;-2.402;2023-02-17T03:49:49;101061.19;;;8.53;100.00
48882;BME280;57063;51.406;-2.402;2023-02-17T03:52:15;101036.94;;;8.37;100.00
48882;BME280;57063;51.406;-2.402;2023-02-17T03:54:41;101032.47;;;8.42;100.00
48882;BME280;57063;51.406;-2.402;2023-02-17T03:57:06;101037.72;;;8.39;100.00
48882;BME280;57063;51.406;-2.402;2023-02-17T03:59:32;101057.19;;;8.46;100.00
48882;BME280;57063;51.406;-2.402;2023-02-17T04:01:57;101042.63;;;8.45;100.00
48882;BME280;57063;51.406;-2.402;2023-02-17T04:04:23;101042.50;;;8.48;100.00
48882;BME280;57063;51.406;-2.402;2023-02-17T04:06:48;101044.25;;;8.48;100.00
48882;BME280;57063;51.406;-2.402;2023-02-17T04:09:14;101020.59;;;8.38;100.00
48882;BME280;57063;51.406;-2.402;2023-02-17T04:11:40;101031.47;;;8.46;100.00
48882;BME280;57063;51.406;-2.402;2023-02-17T04:14:05;101037.44;;;8.69;100.00
48882;BME280;57063;51.406;-2.402;2023-02-17T04:16:31;101037.31;;;8.50;100.00
48882;BME280;57063;51.406;-2.402;2023-02-17T04:18:56;101031.88;;;8.57;100.00
48882;BME280;57063;51.406;-2.402;2023-02-17T04:21:22;101059.56;;;8.73;100.00
48882;BME280;57063;51.406;-2.402;2023-02-17T04:23:47;101050.81;;;8.77;100.00
48882;BME280;57063;51.406;-2.402;2023-02-17T04:26:13;101027.50;;;8.60;100.00
48882;BME280;57063;51.406;-2.402;2023-02-17T04:28:40;101045.97;;;8.69;100.00
48882;BME280;57063;51.406;-2.402;2023-02-17T04:31:07;101022.88;;;8.68;100.00
48882;BME280;57063;51.406;-2.402;2023-02-17T04:33:33;101003.44;;;8.61;100.00
48882;BME280;57063;51.406;-2.402;2023-02-17T04:35:59;101029.63;;;8.70;100.00
48882;BME280;57063;51.406;-2.402;2023-02-17T04:38:27;101008.34;;;8.67;100.00
48882;BME280;57063;51.406;-2.402;2023-02-17T04:40:54;101017.06;;;8.63;100.00
48882;BME280;57063;51.406;-2.402;2023-02-17T04:43:20;101017.72;;;8.68;100.00
48882;BME280;57063;51.406;-2.402;2023-02-17T04:45:46;101018.59;;;8.68;100.00
48882;BME280;57063;51.406;-2.402;2023-02-17T04:48:11;101030.38;;;8.74;100.00
48882;BME280;57063;51.406;-2.402;2023-02-17T04:50:37;100996.09;;;8.51;100.00
48882;BME280;57063;51.406;-2.402;2023-02-17T04:53:02;100998.09;;;8.65;100.00
48882;BME280;57063;51.406;-2.402;2023-02-17T04:55:29;101026.19;;;8.71;100.00
48882;BME280;57063;51.406;-2.402;2023-02-17T04:57:55;101016.06;;;8.67;100.00
48882;BME280;57063;51.406;-2.402;2023-02-17T05:00:20;101001.91;;;8.56;100.00
48882;BME280;57063;51.406;-2.402;2023-02-17T05:02:46;101016.56;;;8.75;100.00
48882;BME280;57063;51.406;-2.402;2023-02-17T05:05:12;101001.13;;;8.75;100.00
48882;BME280;57063;51.406;-2.402;2023-02-17T05:07:41;100997.31;;;8.63;100.00
48882;BME280;57063;51.406;-2.402;2023-02-17T05:10:07;100977.06;;;8.55;100.00
48882;BME280;57063;51.406;-2.402;2023-02-17T05:12:33;101011.97;;;8.83;100.00
48882;BME280;57063;51.406;-2.402;2023-02-17T05:15:00;101012.09;;;8.80;100.00
48882;BME280;57063;51.406;-2.402;2023-02-17T05:17:25;100985.69;;;8.75;100.00
48882;BME280;57063;51.406;-2.402;2023-02-17T05:19:51;100993.97;;;8.83;100.00
48882;BME280;57063;51.406;-2.402;2023-02-17T05:22:17;101006.44;;;8.92;100.00
48882;BME280;57063;51.406;-2.402;2023-02-17T05:24:42;100993.09;;;8.83;100.00
48882;BME280;57063;51.406;-2.402;2023-02-17T05:27:08;100995.25;;;8.93;100.00
48882;BME280;57063;51.406;-2.402;2023-02-17T05:29:33;100986.22;;;9.04;100.00
48882;BME280;57063;51.406;-2.402;2023-02-17T05:31:59;100995.81;;;9.20;100.00
48882;BME280;57063;51.406;-2.402;2023-02-17T05:34:24;100984.28;;;9.09;100.00
48882;BME280;57063;51.406;-2.402;2023-02-17T05:36:50;100983.19;;;9.14;100.00
48882;BME280;57063;51.406;-2.402;2023-02-17T05:39:15;100971.75;;;9.01;100.00
48882;BME280;57063;51.406;-2.402;2023-02-17T05:41:41;100968.78;;;9.10;100.00
48882;BME280;57063;51.406;-2.402;2023-02-17T05:44:07;100980.75;;;9.11;100.00
48882;BME280;57063;51.406;-2.402;2023-02-17T05:46:32;100962.28;;;9.02;100.00
48882;BME280;57063;51.406;-2.402;2023-02-17T05:48:58;100981.59;;;9.12;100.00
48882;BME280;57063;51.406;-2.402;2023-02-17T05:51:23;100963.69;;;9.09;100.00
48882;BME280;57063;51.406;-2.402;2023-02-17T05:53:49;100971.16;;;9.15;100.00
48882;BME280;57063;51.406;-2.402;2023-02-17T05:56:14;100944.88;;;9.07;100.00
48882;BME280;57063;51.406;-2.402;2023-02-17T05:58:40;100969.75;;;9.08;100.00
48882;BME280;57063;51.406;-2.402;2023-02-17T06:01:09;100954.31;;;9.08;100.00
48882;BME280;57063;51.406;-2.402;2023-02-17T06:03:35;100990.97;;;9.33;100.00
48882;BME280;57063;51.406;-2.402;2023-02-17T06:06:01;100993.00;;;9.27;100.00
48882;BME280;57063;51.406;-2.402;2023-02-17T06:08:27;100951.88;;;9.05;100.00
48882;BME280;57063;51.406;-2.402;2023-02-17T06:10:52;100941.97;;;8.95;100.00
48882;BME280;57063;51.406;-2.402;2023-02-17T06:13:19;100958.69;;;9.06;100.00
48882;BME280;57063;51.406;-2.402;2023-02-17T06:15:45;100953.25;;;9.12;100.00
48882;BME280;57063;51.406;-2.402;2023-02-17T06:18:11;100954.81;;;9.16;100.00
48882;BME280;57063;51.406;-2.402;2023-02-17T06:20:37;100967.19;;;9.08;100.00
48882;BME280;57063;51.406;-2.402;2023-02-17T06:23:02;100962.28;;;9.02;100.00
48882;BME280;57063;51.406;-2.402;2023-02-17T06:25:28;100933.72;;;8.87;100.00
48882;BME280;57063;51.406;-2.402;2023-02-17T06:27:53;100945.03;;;9.04;100.00
48882;BME280;57063;51.406;-2.402;2023-02-17T06:30:19;100957.78;;;9.07;100.00
48882;BME280;57063;51.406;-2.402;2023-02-17T06:32:45;100983.50;;;9.07;100.00
48882;BME280;57063;51.406;-2.402;2023-02-17T06:35:11;100974.78;;;9.11;100.00
48882;BME280;57063;51.406;-2.402;2023-02-17T06:37:37;100986.63;;;9.15;100.00
48882;BME280;57063;51.406;-2.402;2023-02-17T06:40:04;100981.84;;;9.06;100.00
48882;BME280;57063;51.406;-2.402;2023-02-17T06:42:30;100994.72;;;9.26;100.00
48882;BME280;57063;51.406;-2.402;2023-02-17T06:44:55;100968.84;;;9.09;100.00
48882;BME280;57063;51.406;-2.402;2023-02-17T06:47:21;100991.38;;;9.04;100.00
48882;BME280;57063;51.406;-2.402;2023-02-17T06:49:47;100984.88;;;9.15;100.00
48882;BME280;57063;51.406;-2.402;2023-02-17T06:52:12;101008.75;;;9.19;100.00
48882;BME280;57063;51.406;-2.402;2023-02-17T06:54:37;100998.97;;;9.27;100.00
48882;BME280;57063;51.406;-2.402;2023-02-17T06:57:03;100988.78;;;9.24;100.00
48882;BME280;57063;51.406;-2.402;2023-02-17T06:59:31;101027.03;;;9.33;100.00
48882;BME280;57063;51.406;-2.402;2023-02-17T07:01:57;101023.47;;;9.17;100.00
48882;BME280;57063;51.406;-2.402;2023-02-17T07:04:22;101028.59;;;9.17;100.00
48882;BME280;57063;51.406;-2.402;2023-02-17T07:06:48;101013.25;;;9.14;100.00
48882;BME280;57063;51.406;-2.402;2023-02-17T07:09:13;101010.03;;;9.09;100.00
48882;BME280;57063;51.406;-2.402;2023-02-17T07:11:39;101040.28;;;9.24;100.00
48882;BME280;57063;51.406;-2.402;2023-02-17T07:14:06;101035.28;;;9.21;100.00
48882;BME280;57063;51.406;-2.402;2023-02-17T07:16:34;101037.03;;;9.00;100.00
48882;BME280;57063;51.406;-2.402;2023-02-17T07:19:00;101039.78;;;8.95;100.00
48882;BME280;57063;51.406;-2.402;2023-02-17T07:21:25;101038.97;;;8.95;100.00
48882;BME280;57063;51.406;-2.402;2023-02-17T07:23:51;101051.88;;;8.93;100.00
48882;BME280;57063;51.406;-2.402;2023-02-17T07:26:16;101076.34;;;9.04;100.00
48882;BME280;57063;51.406;-2.402;2023-02-17T07:28:42;101097.97;;;8.99;100.00
48882;BME280;57063;51.406;-2.402;2023-02-17T07:31:14;101066.81;;;8.85;100.00
48882;BME280;57063;51.406;-2.402;2023-02-17T07:33:40;101106.72;;;8.95;100.00
48882;BME280;57063;51.406;-2.402;2023-02-17T07:36:07;101096.81;;;9.07;100.00
48882;BME280;57063;51.406;-2.402;2023-02-17T07:38:34;101069.50;;;8.82;100.00
48882;BME280;57063;51.406;-2.402;2023-02-17T07:41:07;101106.72;;;8.95;100.00
48882;BME280;57063;51.406;-2.402;2023-02-17T07:43:33;101099.88;;;8.94;100.00
48882;BME280;57063;51.406;-2.402;2023-02-17T07:45:58;101111.97;;;8.92;100.00
48882;BME280;57063;51.406;-2.402;2023-02-17T07:48:24;101075.69;;;8.98;100.00
48882;BME280;57063;51.406;-2.402;2023-02-17T07:50:50;101071.19;;;8.83;100.00
48882;BME280;57063;51.406;-2.402;2023-02-17T07:53:15;101115.72;;;9.07;100.00
48882;BME280;57063;51.406;-2.402;2023-02-17T07:55:41;101125.03;;;9.10;100.00
48882;BME280;57063;51.406;-2.402;2023-02-17T07:58:06;101094.88;;;8.91;100.00
48882;BME280;57063;51.406;-2.402;2023-02-17T08:00:32;101094.44;;;9.02;100.00
48882;BME280;57063;51.406;-2.402;2023-02-17T08:02:57;101123.47;;;9.06;100.00
48882;BME280;57063;51.406;-2.402;2023-02-17T08:05:23;101131.91;;;9.09;100.00
48882;BME280;57063;51.406;-2.402;2023-02-17T08:07:48;101097.44;;;8.91;100.00
48882;BME280;57063;51.406;-2.402;2023-02-17T08:10:36;101107.19;;;9.05;100.00
48882;BME280;57063;51.406;-2.402;2023-02-17T08:13:20;101139.59;;;9.11;100.00
48882;BME280;57063;51.406;-2.402;2023-02-17T08:15:46;101120.25;;;9.00;100.00
48882;BME280;57063;51.406;-2.402;2023-02-17T08:18:11;101130.56;;;9.00;100.00
48882;BME280;57063;51.406;-2.402;2023-02-17T08:20:37;101130.56;;;9.00;100.00
48882;BME280;57063;51.406;-2.402;2023-02-17T08:23:03;101151.53;;;9.12;100.00
48882;BME280;57063;51.406;-2.402;2023-02-17T08:25:33;101135.09;;;8.94;100.00
48882;BME280;57063;51.406;-2.402;2023-02-17T08:27:59;101152.59;;;9.08;100.00
48882;BME280;57063;51.406;-2.402;2023-02-17T08:30:25;101161.09;;;9.10;100.00
48882;BME280;57063;51.406;-2.402;2023-02-17T08:32:50;101142.34;;;9.06;100.00
48882;BME280;57063;51.406;-2.402;2023-02-17T08:35:16;101142.41;;;9.05;100.00
48882;BME280;57063;51.406;-2.402;2023-02-17T08:37:47;101164.41;;;9.12;100.00
48882;BME280;57063;51.406;-2.402;2023-02-17T08:40:14;101178.88;;;9.16;100.00
48882;BME280;57063;51.406;-2.402;2023-02-17T08:42:39;101181.22;;;9.22;100.00
48882;BME280;57063;51.406;-2.402;2023-02-17T08:45:05;101172.84;;;9.17;100.00
48882;BME280;57063;51.406;-2.402;2023-02-17T08:47:30;101163.53;;;9.13;100.00
48882;BME280;57063;51.406;-2.402;2023-02-17T08:49:56;101195.91;;;9.40;100.00
48882;BME280;57063;51.406;-2.402;2023-02-17T08:52:24;101160.19;;;9.11;100.00
48882;BME280;57063;51.406;-2.402;2023-02-17T08:54:53;101186.84;;;9.32;100.00
48882;BME280;57063;51.406;-2.402;2023-02-17T08:57:19;101160.59;;;9.22;100.00
48882;BME280;57063;51.406;-2.402;2023-02-17T08:59:45;101158.91;;;9.21;100.00
48882;BME280;57063;51.406;-2.402;2023-02-17T09:02:14;101173.50;;;9.42;100.00
48882;BME280;57063;51.406;-2.402;2023-02-17T09:04:40;101191.09;;;9.53;100.00
48882;BME280;57063;51.406;-2.402;2023-02-17T09:07:12;101199.19;;;9.66;100.00
48882;BME280;57063;51.406;-2.402;2023-02-17T09:09:38;101180.31;;;9.43;100.00
48882;BME280;57063;51.406;-2.402;2023-02-17T09:12:04;101179.72;;;9.59;100.00
48882;BME280;57063;51.406;-2.402;2023-02-17T09:14:30;101196.97;;;9.77;100.00
48882;BME280;57063;51.406;-2.402;2023-02-17T09:16:56;101180.28;;;9.65;100.00
48882;BME280;57063;51.406;-2.402;2023-02-17T09:19:22;101174.19;;;9.68;100.00
48882;BME280;57063;51.406;-2.402;2023-02-17T09:21:48;101200.00;;;9.87;100.00
48882;BME280;57063;51.406;-2.402;2023-02-17T09:24:14;101194.66;;;9.92;100.00
48882;BME280;57063;51.406;-2.402;2023-02-17T09:26:40;101212.31;;;10.01;100.00
48882;BME280;57063;51.406;-2.402;2023-02-17T09:29:07;101184.97;;;9.97;100.00
48882;BME280;57063;51.406;-2.402;2023-02-17T09:31:34;101201.72;;;10.07;100.00
48882;BME280;57063;51.406;-2.402;2023-02-17T09:34:00;101197.16;;;10.14;100.00
48882;BME280;57063;51.406;-2.402;2023-02-17T09:36:28;101173.25;;;10.10;100.00
48882;BME280;57063;51.406;-2.402;2023-02-17T09:38:55;101182.38;;;10.17;100.00
48882;BME280;57063;51.406;-2.402;2023-02-17T09:41:36;101212.72;;;10.12;100.00
48882;BME280;57063;51.406;-2.402;2023-02-17T09:44:16;101188.91;;;10.05;100.00
48882;BME280;57063;51.406;-2.402;2023-02-17T09:46:48;101178.81;;;10.40;100.00
48882;BME280;57063;51.406;-2.402;2023-02-17T09:49:23;101163.41;;;10.39;100.00
48882;BME280;57063;51.406;-2.402;2023-02-17T09:52:07;101194.16;;;10.62;100.00
48882;BME280;57063;51.406;-2.402;2023-02-17T09:54:43;101195.75;;;10.84;100.00
48882;BME280;57063;51.406;-2.402;2023-02-17T09:57:15;101188.16;;;10.43;100.00
48882;BME280;57063;51.406;-2.402;2023-02-17T09:59:53;101199.84;;;10.70;100.00
48882;BME280;57063;51.406;-2.402;2023-02-17T10:02:26;101216.91;;;10.92;100.00
48882;BME280;57063;51.406;-2.402;2023-02-17T10:05:00;101192.78;;;10.74;100.00
48882;BME280;57063;51.406;-2.402;2023-02-17T10:08:00;101177.13;;;10.58;100.00
48882;BME280;57063;51.406;-2.402;2023-02-17T10:10:30;101193.31;;;10.43;100.00
48882;BME280;57063;51.406;-2.402;2023-02-17T10:13:01;101169.19;;;10.44;100.00
48882;BME280;57063;51.406;-2.402;2023-02-17T10:15:34;101188.16;;;10.62;100.00
48882;BME280;57063;51.406;-2.402;2023-02-17T10:18:34;101188.06;;;11.01;100.00
48882;BME280;57063;51.406;-2.402;2023-02-17T10:21:20;101213.31;;;11.13;100.00
48882;BME280;57063;51.406;-2.402;2023-02-17T10:23:49;101171.06;;;10.78;100.00
48882;BME280;57063;51.406;-2.402;2023-02-17T10:29:36;101177.91;;;11.16;100.00
48882;BME280;57063;51.406;-2.402;2023-02-17T10:40:30;101197.63;;;11.35;100.00
48882;BME280;57063;51.406;-2.402;2023-02-17T10:43:04;101197.25;;;11.61;100.00
48882;BME280;57063;51.406;-2.402;2023-02-17T10:45:34;101189.03;;;11.35;100.00
48882;BME280;57063;51.406;-2.402;2023-02-17T10:48:20;101172.47;;;11.22;100.00
48882;BME280;57063;51.406;-2.402;2023-02-17T10:50:47;101173.97;;;11.26;100.00
48882;BME280;57063;51.406;-2.402;2023-02-17T10:53:24;101176.41;;;11.29;100.00
48882;BME280;57063;51.406;-2.402;2023-02-17T10:56:47;101214.28;;;11.47;100.00
48882;BME280;57063;51.406;-2.402;2023-02-17T10:58:58;101209.56;;;11.55;100.00
48882;BME280;57063;51.406;-2.402;2023-02-17T11:01:27;101185.47;;;11.55;100.00
48882;BME280;57063;51.406;-2.402;2023-02-17T11:04:05;101221.16;;;11.83;100.00
48882;BME280;57063;51.406;-2.402;2023-02-17T11:06:36;101192.22;;;11.92;100.00
48882;BME280;57063;51.406;-2.402;2023-02-17T11:11:52;101203.81;;;12.03;100.00
48882;BME280;57063;51.406;-2.402;2023-02-17T11:14:27;101222.34;;;12.11;100.00
48882;BME280;57063;51.406;-2.402;2023-02-17T11:16:58;101194.22;;;12.05;100.00
48882;BME280;57063;51.406;-2.402;2023-02-17T11:19:27;101219.66;;;12.30;100.00
48882;BME280;57063;51.406;-2.402;2023-02-17T11:21:55;101198.72;;;12.50;100.00
48882;BME280;57063;51.406;-2.402;2023-02-17T11:24:23;101203.84;;;12.18;100.00
48882;BME280;57063;51.406;-2.402;2023-02-17T11:26:59;101214.25;;;12.50;100.00
48882;BME280;57063;51.406;-2.402;2023-02-17T11:29:26;101227.75;;;12.06;100.00
48882;BME280;57063;51.406;-2.402;2023-02-17T11:32:00;101210.03;;;11.98;100.00
48882;BME280;57063;51.406;-2.402;2023-02-17T11:34:29;101210.88;;;11.82;100.00
48882;BME280;57063;51.406;-2.402;2023-02-17T11:39:44;101225.09;;;11.73;100.00
48882;BME280;57063;51.406;-2.402;2023-02-17T11:42:36;101237.72;;;11.79;100.00
48882;BME280;57063;51.406;-2.402;2023-02-17T11:45:15;101218.56;;;11.66;100.00
48882;BME280;57063;51.406;-2.402;2023-02-17T11:47:57;101213.06;;;11.54;100.00
48882;BME280;57063;51.406;-2.402;2023-02-17T11:50:43;101212.53;;;11.65;100.00
48882;BME280;57063;51.406;-2.402;2023-02-17T12:09:28;101192.94;;;11.61;100.00
48882;BME280;57063;51.406;-2.402;2023-02-17T12:20:58;101210.16;;;11.61;100.00
48882;BME280;57063;51.406;-2.402;2023-02-17T12:23:59;101226.53;;;11.61;100.00
48882;BME280;57063;51.406;-2.402;2023-02-17T12:26:41;101209.25;;;11.79;100.00
48882;BME280;57063;51.406;-2.402;2023-02-17T12:34:41;101210.78;;;11.48;100.00
48882;BME280;57063;51.406;-2.402;2023-02-17T12:37:20;101192.88;;;11.26;100.00
48882;BME280;57063;51.406;-2.402;2023-02-17T12:39:54;101193.59;;;11.47;100.00
48882;BME280;57063;51.406;-2.402;2023-02-17T12:42:34;101179.63;;;11.51;100.00
48882;BME280;57063;51.406;-2.402;2023-02-17T12:45:39;101188.19;;;11.69;100.00
48882;BME280;57063;51.406;-2.402;2023-02-17T12:48:32;101210.09;;;11.62;100.00
48882;BME280;57063;51.406;-2.402;2023-02-17T12:51:04;101210.47;;;11.72;100.00
48882;BME280;57063;51.406;-2.402;2023-02-17T12:56:31;101179.13;;;11.61;100.00
48882;BME280;57063;51.406;-2.402;2023-02-17T12:59:00;101176.44;;;11.64;100.00
48882;BME280;57063;51.406;-2.402;2023-02-17T13:01:31;101153.44;;;11.40;100.00
48882;BME280;57063;51.406;-2.402;2023-02-17T13:04:01;101171.41;;;11.78;100.00
48882;BME280;57063;51.406;-2.402;2023-02-17T13:06:40;101177.94;;;11.68;100.00
48882;BME280;57063;51.406;-2.402;2023-02-17T13:09:33;101198.31;;;11.74;100.00
48882;BME280;57063;51.406;-2.402;2023-02-17T13:14:54;101187.81;;;11.60;100.00
48882;BME280;57063;51.406;-2.402;2023-02-17T13:17:51;101183.34;;;11.63;100.00
48882;BME280;57063;51.406;-2.402;2023-02-17T13:22:43;101182.31;;;11.31;100.00
48882;BME280;57063;51.406;-2.402;2023-02-17T13:25:33;101162.13;;;11.22;100.00
48882;BME280;57063;51.406;-2.402;2023-02-17T13:28:01;101205.16;;;11.40;100.00
48882;BME280;57063;51.406;-2.402;2023-02-17T13:30:40;101172.91;;;11.12;100.00
48882;BME280;57063;51.406;-2.402;2023-02-17T13:33:25;101169.69;;;11.07;100.00
48882;BME280;57063;51.406;-2.402;2023-02-17T13:35:51;101192.00;;;10.91;100.00
48882;BME280;57063;51.406;-2.402;2023-02-17T13:38:31;101173.56;;;10.80;100.00
48882;BME280;57063;51.406;-2.402;2023-02-17T13:41:00;101167.00;;;10.91;100.00
48882;BME280;57063;51.406;-2.402;2023-02-17T13:43:28;101170.56;;;10.89;100.00
48882;BME280;57063;51.406;-2.402;2023-02-17T13:46:03;101194.97;;;11.01;100.00
48882;BME280;57063;51.406;-2.402;2023-02-17T13:48:31;101199.75;;;10.91;100.00
48882;BME280;57063;51.406;-2.402;2023-02-17T13:50:59;101215.69;;;10.99;100.00
48882;BME280;57063;51.406;-2.402;2023-02-17T13:56:10;101177.97;;;10.78;100.00
48882;BME280;57063;51.406;-2.402;2023-02-17T13:58:38;101196.47;;;10.68;100.00
48882;BME280;57063;51.406;-2.402;2023-02-17T14:01:07;101225.41;;;10.94;100.00
48882;BME280;57063;51.406;-2.402;2023-02-17T14:03:49;101203.66;;;10.62;100.00
48882;BME280;57063;51.406;-2.402;2023-02-17T14:08:46;101204.78;;;10.56;100.00
48882;BME280;57063;51.406;-2.402;2023-02-17T14:11:16;101214.66;;;10.65;100.00
48882;BME280;57063;51.406;-2.402;2023-02-17T14:13:45;101233.09;;;10.58;100.00
48882;BME280;57063;51.406;-2.402;2023-02-17T14:16:41;101222.22;;;10.51;100.00
48882;BME280;57063;51.406;-2.402;2023-02-17T14:19:10;101209.94;;;10.56;100.00
48882;BME280;57063;51.406;-2.402;2023-02-17T14:21:43;101216.94;;;10.34;100.00
48882;BME280;57063;51.406;-2.402;2023-02-17T14:24:33;101222.09;;;10.34;100.00